Time;durP1;ratioP1;P1;durP2;ratioP2;P2;SDS_P1;SDS_P2;PMS_P1;PMS_P2;Temp;Humidity;BMP_temperature;BMP_pressure;BME280_temperature;BME280_humidity;BME280_pressure;Samples;Min_cycle;Max_cycle;Signal;HPM_P1;HPM_P2
2021/12/29 00:00:08;;;;;;;11.20;5.53;;;-2.80;99.90;;;;;;4919493;29;20055;-88
2021/12/29 00:02:34;;;;;;;8.15;3.13;;;-2.90;99.90;;;;;;4919546;29;20122;-88
2021/12/29 00:04:59;;;;;;;7.47;3.95;;;-3.10;99.90;;;;;;4919866;29;20599;-88
2021/12/29 00:07:25;;;;;;;4.90;3.13;;;-3.20;99.90;;;;;;4919466;29;20032;-87
2021/12/29 00:09:54;;;;;;;8.60;3.65;;;-3.20;99.90;;;;;;4919843;29;20036;-88
2021/12/29 00:12:25;;;;;;;9.77;3.53;;;-3.20;99.90;;;;;;4919212;29;20039;-87
2021/12/29 00:14:52;;;;;;;4.55;3.35;;;-3.10;99.90;;;;;;4919301;29;20039;-87
2021/12/29 00:17:17;;;;;;;5.57;2.88;;;-3.10;99.90;;;;;;4919177;29;20100;-87
2021/12/29 00:19:44;;;;;;;3.90;2.13;;;-3.00;99.90;;;;;;4918988;29;20043;-87
2021/12/29 00:22:09;;;;;;;6.68;3.83;;;-3.00;99.90;;;;;;4919190;29;20039;-88
2021/12/29 00:24:35;;;;;;;5.50;3.22;;;-3.10;99.90;;;;;;4918970;29;20019;-88
2021/12/29 00:27:04;;;;;;;5.65;2.47;;;-3.20;99.90;;;;;;4919896;29;20032;-88
2021/12/29 00:29:31;;;;;;;5.38;3.15;;;-3.30;99.90;;;;;;4918732;29;20040;-88
2021/12/29 00:31:56;;;;;;;4.78;2.75;;;-3.40;99.90;;;;;;4919337;29;20120;-87
2021/12/29 00:34:22;;;;;;;6.40;3.17;;;-3.30;99.90;;;;;;4919929;29;20126;-88
2021/12/29 00:36:48;;;;;;;2.80;2.28;;;-3.40;99.90;;;;;;4938889;29;20032;-88
2021/12/29 00:39:14;;;;;;;6.82;2.75;;;-3.30;99.90;;;;;;4922527;29;20477;-88
2021/12/29 00:41:39;;;;;;;5.63;3.08;;;-3.10;99.90;;;;;;4922454;29;20027;-87
2021/12/29 00:44:07;;;;;;;6.43;3.85;;;-3.00;99.90;;;;;;4922254;29;20032;-88
2021/12/29 00:46:37;;;;;;;7.80;3.33;;;-3.00;99.90;;;;;;4923190;29;20119;-87
2021/12/29 00:49:03;;;;;;;5.78;3.20;;;-3.20;99.90;;;;;;4922373;29;20481;-88
2021/12/29 00:51:29;;;;;;;8.02;3.90;;;-3.30;99.90;;;;;;4922317;29;20130;-88
2021/12/29 00:53:55;;;;;;;4.93;2.92;;;-3.40;99.90;;;;;;4922205;29;20467;-88
2021/12/29 00:56:21;;;;;;;7.20;3.58;;;-3.50;99.90;;;;;;4922305;29;20032;-87
2021/12/29 00:58:46;;;;;;;5.47;3.75;;;-3.50;99.90;;;;;;4922139;29;20040;-88
2021/12/29 01:01:12;;;;;;;6.72;3.90;;;-3.50;99.90;;;;;;4938925;29;20099;-88
2021/12/29 01:03:38;;;;;;;4.15;2.20;;;-3.50;99.90;;;;;;4922869;29;20034;-87
2021/12/29 01:06:05;;;;;;;3.88;2.75;;;-3.50;99.90;;;;;;4922528;29;20474;-87
2021/12/29 01:08:31;;;;;;;5.65;3.15;;;-3.60;99.90;;;;;;4922029;29;20028;-87
2021/12/29 01:10:57;;;;;;;7.15;3.35;;;-3.60;99.90;;;;;;4921893;29;20107;-87
2021/12/29 01:13:30;;;;;;;7.63;3.17;;;-3.70;99.90;;;;;;4921947;29;20035;-87
2021/12/29 01:16:09;;;;;;;3.67;2.45;;;-3.70;99.90;;;;;;4921933;29;20122;-88
2021/12/29 01:18:39;;;;;;;4.57;2.67;;;-3.60;99.90;;;;;;4939274;29;20028;-87
2021/12/29 01:21:05;;;;;;;4.85;2.80;;;-3.70;99.90;;;;;;4938863;29;20031;-87
2021/12/29 01:23:32;;;;;;;5.32;3.28;;;-3.70;99.90;;;;;;4938573;29;20028;-87
2021/12/29 01:25:57;;;;;;;7.30;3.83;;;-3.70;99.90;;;;;;4921797;29;20546;-87
2021/12/29 01:28:23;;;;;;;7.03;3.33;;;-3.80;99.90;;;;;;4921630;29;20040;-87
2021/12/29 01:30:50;;;;;;;6.95;3.75;;;-3.90;99.90;;;;;;4918066;29;20044;-87
2021/12/29 01:33:15;;;;;;;5.53;2.97;;;-3.90;99.90;;;;;;4919609;29;20036;-87
2021/12/29 01:35:41;;;;;;;6.55;3.42;;;-3.90;99.90;;;;;;4919662;29;20102;-88
2021/12/29 01:38:08;;;;;;;6.25;3.30;;;-4.00;99.90;;;;;;4918398;29;20533;-87
2021/12/29 01:40:38;;;;;;;5.35;2.97;;;-4.00;99.90;;;;;;4919538;29;20028;-87
2021/12/29 01:43:05;;;;;;;4.20;2.97;;;-4.00;99.90;;;;;;4918248;29;20024;-87
2021/12/29 01:45:31;;;;;;;6.53;3.65;;;-4.10;99.90;;;;;;4919499;29;20040;-87
2021/12/29 01:48:00;;;;;;;9.63;3.15;;;-4.10;99.90;;;;;;4918038;29;20067;-87
2021/12/29 01:50:25;;;;;;;4.20;2.60;;;-4.10;99.90;;;;;;4918143;29;20063;-87
2021/12/29 01:52:56;;;;;;;6.70;3.80;;;-4.10;99.90;;;;;;4918039;29;20073;-87
2021/12/29 01:55:25;;;;;;;4.32;2.65;;;-4.10;99.90;;;;;;4918114;29;20036;-86
2021/12/29 01:57:52;;;;;;;3.35;2.28;;;-4.20;99.90;;;;;;4919266;29;20031;-86
2021/12/29 02:00:20;;;;;;;5.45;3.53;;;-4.20;99.90;;;;;;4918290;29;20028;-87
2021/12/29 02:02:47;;;;;;;7.45;3.45;;;-4.20;99.90;;;;;;4917961;29;20490;-87
2021/12/29 02:05:12;;;;;;;6.43;3.42;;;-4.10;99.90;;;;;;4919388;29;20064;-87
2021/12/29 02:07:38;;;;;;;4.68;2.70;;;-4.10;99.90;;;;;;4917976;29;20099;-87
2021/12/29 02:10:05;;;;;;;8.43;3.45;;;-4.20;99.90;;;;;;4917756;29;20551;-87
2021/12/29 02:12:32;;;;;;;6.72;3.97;;;-4.20;99.90;;;;;;4917977;29;20419;-87
2021/12/29 02:14:57;;;;;;;6.57;2.95;;;-4.20;99.90;;;;;;4917774;29;20486;-87
2021/12/29 02:17:23;;;;;;;9.50;4.13;;;-4.20;99.90;;;;;;4917896;29;20032;-87
2021/12/29 02:19:49;;;;;;;6.80;4.40;;;-4.20;99.90;;;;;;4917367;29;20055;-87
2021/12/29 02:25:06;;;;;;;3.42;2.38;;;-4.30;99.90;;;;;;4918797;29;20036;-87
2021/12/29 02:27:36;;;;;;;7.93;3.35;;;-4.30;99.90;;;;;;4917608;29;20028;-87
2021/12/29 02:30:04;;;;;;;5.47;3.00;;;-4.30;99.90;;;;;;4924253;29;20056;-87
2021/12/29 02:32:29;;;;;;;5.38;2.63;;;-4.30;99.90;;;;;;4920494;29;20027;-87
2021/12/29 02:34:55;;;;;;;5.20;2.25;;;-4.30;99.90;;;;;;4920535;29;20027;-87
2021/12/29 02:37:22;;;;;;;6.20;3.10;;;-4.30;99.90;;;;;;4920731;29;20032;-87
2021/12/29 02:39:49;;;;;;;4.53;3.42;;;-4.30;99.90;;;;;;4920291;29;20031;-87
2021/12/29 02:42:19;;;;;;;5.22;3.30;;;-4.30;99.90;;;;;;4921007;29;20027;-87
2021/12/29 02:44:46;;;;;;;7.00;2.80;;;-4.40;99.90;;;;;;4920401;29;20046;-87
2021/12/29 02:47:11;;;;;;;4.45;3.00;;;-4.40;99.90;;;;;;4920219;29;20031;-87
2021/12/29 02:49:38;;;;;;;7.30;3.60;;;-4.40;99.90;;;;;;4920176;29;20522;-87
2021/12/29 02:52:04;;;;;;;7.28;3.40;;;-4.40;99.90;;;;;;4937441;29;20106;-86
2021/12/29 02:54:30;;;;;;;6.35;2.47;;;-4.40;99.90;;;;;;4937171;29;20523;-87
2021/12/29 02:56:56;;;;;;;3.30;3.00;;;-4.40;99.90;;;;;;4920140;29;20119;-87
2021/12/29 02:59:23;;;;;;;6.10;2.72;;;-4.40;99.90;;;;;;4919595;29;20235;-87
2021/12/29 03:01:50;;;;;;;4.25;2.45;;;-4.40;99.90;;;;;;4937106;29;20032;-87
2021/12/29 03:04:15;;;;;;;5.13;2.85;;;-4.50;99.90;;;;;;4920011;29;20024;-87
2021/12/29 03:06:41;;;;;;;4.97;2.88;;;-4.40;99.90;;;;;;4920416;29;20038;-87
2021/12/29 03:09:09;;;;;;;5.57;3.17;;;-4.40;99.90;;;;;;4920170;29;20099;-87
2021/12/29 03:11:36;;;;;;;6.05;3.08;;;-4.40;99.90;;;;;;4920049;29;20530;-87
2021/12/29 03:14:03;;;;;;;6.32;4.40;;;-4.40;99.90;;;;;;4920263;29;20128;-87
2021/12/29 03:16:31;;;;;;;3.85;2.42;;;-4.40;99.90;;;;;;4936617;29;20079;-87
2021/12/29 03:18:57;;;;;;;6.55;3.15;;;-4.40;99.90;;;;;;4919715;29;20123;-87
2021/12/29 03:21:22;;;;;;;5.93;3.17;;;-4.40;99.90;;;;;;4919842;29;20115;-87
2021/12/29 03:23:49;;;;;;;6.85;3.63;;;-4.40;99.90;;;;;;4920252;29;20032;-87
2021/12/29 03:26:15;;;;;;;3.60;2.15;;;-4.40;99.90;;;;;;4920217;29;20340;-87
2021/12/29 03:28:43;;;;;;;3.45;2.70;;;-4.40;99.90;;;;;;4937010;29;20466;-87
2021/12/29 03:31:14;;;;;;;7.53;3.63;;;-4.30;99.90;;;;;;4937455;29;20047;-86
2021/12/29 03:33:41;;;;;;;4.13;2.05;;;-4.30;99.90;;;;;;4920171;29;20075;-87
2021/12/29 03:36:08;;;;;;;6.25;3.53;;;-4.30;99.90;;;;;;4919658;29;20419;-87
2021/12/29 03:38:37;;;;;;;6.35;4.20;;;-4.30;99.90;;;;;;4919679;29;20064;-87
2021/12/29 03:41:05;;;;;;;6.93;3.58;;;-4.30;99.90;;;;;;4936672;29;20059;-87
2021/12/29 03:43:32;;;;;;;9.40;3.47;;;-4.30;99.90;;;;;;4936682;29;20024;-87
2021/12/29 03:45:59;;;;;;;3.88;2.47;;;-4.30;99.90;;;;;;4919559;29;20038;-87
2021/12/29 03:48:28;;;;;;;6.53;3.97;;;-4.30;99.90;;;;;;4919638;29;20035;-87
2021/12/29 03:50:55;;;;;;;4.45;2.60;;;-4.40;99.90;;;;;;4919469;29;20031;-87
2021/12/29 03:53:22;;;;;;;7.28;2.65;;;-4.40;99.90;;;;;;4920232;29;20056;-87
2021/12/29 03:55:49;;;;;;;4.72;3.10;;;-4.40;99.90;;;;;;4919936;29;20119;-87
2021/12/29 03:58:20;;;;;;;5.97;3.13;;;-4.40;99.90;;;;;;4919400;29;20035;-86
2021/12/29 04:00:48;;;;;;;5.50;2.58;;;-4.40;99.90;;;;;;4919639;29;20483;-87
2021/12/29 04:03:14;;;;;;;6.43;3.75;;;-4.40;99.90;;;;;;4919366;29;20055;-87
2021/12/29 04:05:39;;;;;;;4.68;2.75;;;-4.40;99.90;;;;;;4919200;29;20070;-87
2021/12/29 04:08:05;;;;;;;5.53;3.25;;;-4.40;99.90;;;;;;4919256;29;20031;-87
2021/12/29 04:10:31;;;;;;;7.15;3.72;;;-4.30;99.90;;;;;;4920003;29;20034;-87
2021/12/29 04:12:57;;;;;;;9.13;3.80;;;-4.30;99.90;;;;;;4922889;29;20463;-87
2021/12/29 04:15:25;;;;;;;3.80;2.65;;;-4.40;99.90;;;;;;4922771;29;20024;-87
2021/12/29 04:17:57;;;;;;;7.63;3.75;;;-4.30;99.90;;;;;;4940033;29;20043;-87
2021/12/29 04:23:08;;;;;;;7.05;4.03;;;-4.30;99.90;;;;;;4940105;29;20039;-87
2021/12/29 04:25:37;;;;;;;6.55;4.07;;;-4.30;99.90;;;;;;4922850;29;20075;-87
2021/12/29 04:28:07;;;;;;;4.57;3.72;;;-4.30;99.90;;;;;;4922603;29;20467;-87
2021/12/29 04:30:33;;;;;;;4.70;2.70;;;-4.30;99.90;;;;;;4922625;29;20493;-87
2021/12/29 04:32:58;;;;;;;7.72;3.33;;;-4.30;99.90;;;;;;4922391;29;20063;-87
2021/12/29 04:35:24;;;;;;;12.32;4.88;;;-4.30;99.90;;;;;;4922587;29;20458;-87
2021/12/29 04:37:51;;;;;;;5.15;4.00;;;-4.40;99.90;;;;;;4922571;29;20459;-86
2021/12/29 04:40:17;;;;;;;6.90;3.85;;;-4.40;99.90;;;;;;4923119;29;20054;-87
2021/12/29 04:42:43;;;;;;;7.05;3.58;;;-4.40;99.90;;;;;;4922469;29;20066;-87
2021/12/29 04:45:09;;;;;;;7.30;3.30;;;-4.40;99.90;;;;;;4922405;29;20483;-87
2021/12/29 04:47:39;;;;;;;5.78;3.78;;;-4.40;99.90;;;;;;4922382;29;20038;-87
2021/12/29 04:50:13;;;;;;;8.77;3.70;;;-4.40;99.90;;;;;;4922389;29;20123;-87
2021/12/29 04:52:39;;;;;;;3.80;2.88;;;-4.40;99.90;;;;;;4922798;29;20087;-87
2021/12/29 04:55:07;;;;;;;5.03;2.78;;;-4.40;99.90;;;;;;4922193;29;20047;-87
2021/12/29 04:57:33;;;;;;;5.88;3.70;;;-4.40;99.90;;;;;;4922148;29;20127;-87
2021/12/29 04:59:58;;;;;;;6.28;4.05;;;-4.40;99.90;;;;;;4922736;29;20118;-87
2021/12/29 05:02:24;;;;;;;8.80;3.33;;;-4.40;99.90;;;;;;4922092;29;20087;-87
2021/12/29 05:04:58;;;;;;;4.88;3.17;;;-4.40;99.90;;;;;;4922146;29;20082;-86
2021/12/29 05:10:08;;;;;;;3.25;2.67;;;-4.40;99.90;;;;;;4939091;29;20090;-87
2021/12/29 05:12:34;;;;;;;7.07;3.65;;;-4.30;99.90;;;;;;4938979;29;20035;-87
2021/12/29 05:15:00;;;;;;;6.95;4.32;;;-4.30;99.90;;;;;;4921869;29;20386;-87
2021/12/29 05:17:25;;;;;;;6.00;3.25;;;-4.30;99.90;;;;;;4921774;29;20031;-87
2021/12/29 05:19:51;;;;;;;5.25;3.22;;;-4.30;99.90;;;;;;4921851;29;20070;-87
2021/12/29 05:22:17;;;;;;;6.05;3.38;;;-4.30;99.90;;;;;;4921552;29;20032;-87
2021/12/29 05:24:42;;;;;;;8.45;4.05;;;-4.20;99.90;;;;;;4922122;29;20474;-87
2021/12/29 05:27:08;;;;;;;6.15;3.30;;;-4.30;99.90;;;;;;4921588;29;20027;-87
2021/12/29 05:29:34;;;;;;;4.68;3.08;;;-4.20;99.90;;;;;;4921593;29;20038;-87
2021/12/29 05:32:00;;;;;;;7.45;4.13;;;-4.30;99.90;;;;;;4922011;29;20034;-87
2021/12/29 05:34:26;;;;;;;6.88;3.47;;;-4.30;99.90;;;;;;4938455;29;20019;-87
2021/12/29 05:36:52;;;;;;;5.88;2.85;;;-4.20;99.90;;;;;;4938451;29;20027;-87
2021/12/29 05:39:17;;;;;;;5.50;3.22;;;-4.20;99.90;;;;;;4921409;29;20487;-87
2021/12/29 05:41:43;;;;;;;5.63;4.50;;;-4.20;99.90;;;;;;4921445;29;20055;-87
2021/12/29 05:44:09;;;;;;;7.63;4.65;;;-4.20;99.90;;;;;;4921024;29;20110;-87
2021/12/29 05:46:35;;;;;;;8.82;4.60;;;-4.20;99.90;;;;;;4921180;29;20024;-87
2021/12/29 05:49:01;;;;;;;4.70;2.67;;;-4.20;99.90;;;;;;4920793;29;20131;-86
2021/12/29 05:51:26;;;;;;;4.47;2.72;;;-4.20;99.90;;;;;;4921196;29;20039;-87
2021/12/29 05:53:52;;;;;;;7.82;2.85;;;-4.20;99.90;;;;;;4937739;29;20106;-86
2021/12/29 05:56:18;;;;;;;8.48;4.30;;;-4.20;99.90;;;;;;4920522;29;20081;-86
2021/12/29 05:58:43;;;;;;;7.68;3.83;;;-4.20;99.90;;;;;;4920717;29;20513;-86
2021/12/29 06:01:10;;;;;;;9.30;4.05;;;-4.20;99.90;;;;;;4921138;29;20167;-86
2021/12/29 06:03:37;;;;;;;10.23;4.80;;;-4.20;99.90;;;;;;4920857;29;20103;-86
2021/12/29 06:06:03;;;;;;;5.28;3.40;;;-4.30;99.90;;;;;;4920629;29;20047;-86
2021/12/29 06:08:29;;;;;;;6.60;3.00;;;-4.30;99.90;;;;;;4920421;29;20040;-87
2021/12/29 06:10:54;;;;;;;7.70;4.63;;;-4.30;99.90;;;;;;4920620;29;20104;-86
2021/12/29 06:13:20;;;;;;;9.82;4.82;;;-4.30;99.90;;;;;;4937284;29;20078;-87
2021/12/29 06:15:46;;;;;;;6.30;3.53;;;-4.20;99.90;;;;;;4937323;29;20463;-87
2021/12/29 06:18:12;;;;;;;5.95;3.35;;;-4.20;99.90;;;;;;4920993;29;20039;-87
2021/12/29 06:20:38;;;;;;;7.07;4.45;;;-4.20;99.90;;;;;;4938120;29;20482;-88
2021/12/29 06:23:06;;;;;;;8.90;4.82;;;-4.10;99.90;;;;;;4920250;29;20031;-87
2021/12/29 06:25:32;;;;;;;8.20;4.63;;;-4.10;99.90;;;;;;4920497;29;20047;-87
2021/12/29 06:27:58;;;;;;;6.07;3.33;;;-4.10;99.90;;;;;;4920222;29;20027;-87
2021/12/29 06:30:24;;;;;;;9.35;3.50;;;-4.00;99.90;;;;;;4937091;29;20061;-86
2021/12/29 06:32:50;;;;;;;8.73;4.28;;;-4.10;99.90;;;;;;4928454;29;20066;-88
2021/12/29 06:35:16;;;;;;;8.00;4.57;;;-4.00;99.90;;;;;;4938838;29;20468;-87
2021/12/29 06:37:43;;;;;;;9.35;3.88;;;-4.00;99.90;;;;;;4956014;29;20098;-87
2021/12/29 06:40:10;;;;;;;8.40;5.07;;;-4.00;99.90;;;;;;4938682;29;20035;-87
2021/12/29 06:42:36;;;;;;;6.68;3.40;;;-4.00;99.90;;;;;;4938539;29;20027;-87
2021/12/29 06:45:02;;;;;;;7.47;4.00;;;-4.00;99.90;;;;;;4956522;29;20035;-88
2021/12/29 06:47:28;;;;;;;6.85;4.13;;;-4.00;99.90;;;;;;4922507;29;20031;-89
2021/12/29 06:49:54;;;;;;;10.20;5.43;;;-4.00;99.90;;;;;;4938807;29;20042;-88
2021/12/29 06:52:20;;;;;;;8.73;3.80;;;-4.10;99.90;;;;;;4938687;29;20162;-89
2021/12/29 06:54:46;;;;;;;10.32;5.78;;;-4.10;99.90;;;;;;4938133;29;20082;-88
2021/12/29 06:57:13;;;;;;;9.82;4.22;;;-4.20;99.90;;;;;;4938385;29;20031;-87
2021/12/29 06:59:39;;;;;;;9.38;4.22;;;-4.10;99.90;;;;;;4938217;29;20038;-86
2021/12/29 07:02:05;;;;;;;7.78;3.75;;;-4.10;99.90;;;;;;4938688;29;20435;-87
2021/12/29 07:04:31;;;;;;;6.35;4.65;;;-4.10;99.90;;;;;;4938486;29;20578;-88
2021/12/29 07:06:57;;;;;;;9.30;3.63;;;-4.20;99.90;;;;;;4938325;29;20105;-87
2021/12/29 07:09:24;;;;;;;7.82;4.47;;;-4.20;99.90;;;;;;4938466;29;20049;-87
2021/12/29 07:11:50;;;;;;;6.82;4.05;;;-4.20;99.90;;;;;;4938476;29;20047;-87
2021/12/29 07:14:16;;;;;;;6.28;3.53;;;-4.20;99.90;;;;;;4938622;29;20059;-88
2021/12/29 07:16:44;;;;;;;8.30;4.70;;;-4.20;99.90;;;;;;4938578;29;20106;-87
2021/12/29 07:19:10;;;;;;;12.35;4.18;;;-4.10;99.90;;;;;;4955584;29;20031;-88
2021/12/29 07:21:36;;;;;;;5.82;3.40;;;-4.10;99.90;;;;;;4939371;29;20024;-87
2021/12/29 07:24:03;;;;;;;7.15;4.38;;;-4.10;99.90;;;;;;4938656;29;20035;-87
2021/12/29 07:26:28;;;;;;;6.10;3.60;;;-4.10;99.90;;;;;;4937676;29;20023;-88
2021/12/29 07:28:56;;;;;;;7.93;4.18;;;-4.10;99.90;;;;;;4938585;29;20038;-88
2021/12/29 07:31:22;;;;;;;5.90;3.20;;;-4.10;99.90;;;;;;4938413;29;20159;-87
2021/12/29 07:33:47;;;;;;;4.95;3.05;;;-4.10;99.90;;;;;;4938349;29;20117;-87
2021/12/29 07:36:13;;;;;;;6.40;4.63;;;-4.00;99.90;;;;;;4937857;29;20514;-88
2021/12/29 07:38:40;;;;;;;10.15;5.20;;;-4.10;99.90;;;;;;4955400;29;20037;-89
2021/12/29 07:41:07;;;;;;;10.90;5.32;;;-4.10;99.90;;;;;;4938264;29;20027;-86
2021/12/29 07:43:35;;;;;;;11.70;6.38;;;-4.00;99.90;;;;;;4938196;29;20031;-88
2021/12/29 07:46:01;;;;;;;6.90;4.13;;;-4.00;99.90;;;;;;4941009;29;20125;-87
2021/12/29 07:48:29;;;;;;;8.93;5.13;;;-4.00;99.90;;;;;;4942187;29;20111;-88
2021/12/29 07:50:55;;;;;;;6.28;3.42;;;-3.90;99.90;;;;;;4941542;29;20038;-88
2021/12/29 07:53:21;;;;;;;12.18;5.85;;;-3.90;99.90;;;;;;4941993;29;20042;-87
2021/12/29 07:55:47;;;;;;;9.65;5.28;;;-3.90;99.90;;;;;;4941520;29;20035;-88
2021/12/29 07:58:14;;;;;;;10.07;3.90;;;-3.80;99.90;;;;;;4942049;29;20027;-87
2021/12/29 08:00:40;;;;;;;6.50;4.28;;;-3.80;99.90;;;;;;4941761;29;20054;-89
2021/12/29 08:03:06;;;;;;;8.85;4.28;;;-3.70;99.90;;;;;;4942524;29;20051;-88
2021/12/29 08:05:31;;;;;;;9.80;5.80;;;-3.70;99.90;;;;;;4942044;29;20030;-88
2021/12/29 08:07:57;;;;;;;11.65;5.00;;;-3.60;99.90;;;;;;4942025;29;20359;-89
2021/12/29 08:10:23;;;;;;;7.47;3.70;;;-3.70;99.90;;;;;;4941857;29;20474;-88
2021/12/29 08:12:49;;;;;;;7.75;3.63;;;-3.70;99.90;;;;;;4941585;29;20370;-87
2021/12/29 08:15:15;;;;;;;9.77;4.18;;;-3.70;99.90;;;;;;4941475;29;20427;-88
2021/12/29 08:17:41;;;;;;;5.95;2.88;;;-3.70;99.90;;;;;;4941006;29;20118;-86
2021/12/29 08:20:08;;;;;;;12.57;4.05;;;-3.80;99.90;;;;;;4958317;29;20027;-88
2021/12/29 08:22:34;;;;;;;8.57;2.85;;;-3.70;99.90;;;;;;4957879;29;20036;-87
2021/12/29 08:25:00;;;;;;;12.52;5.03;;;-3.80;99.90;;;;;;4941207;29;20027;-88
2021/12/29 08:27:26;;;;;;;5.13;3.58;;;-3.80;99.90;;;;;;4940975;29;20082;-87
2021/12/29 08:29:52;;;;;;;7.18;4.05;;;-3.80;99.90;;;;;;4940760;29;20081;-87
2021/12/29 08:32:18;;;;;;;10.82;3.72;;;-3.70;99.90;;;;;;4941289;29;20484;-86
2021/12/29 08:34:46;;;;;;;8.20;4.35;;;-3.70;99.90;;;;;;4940782;29;20126;-88
2021/12/29 08:37:12;;;;;;;13.15;4.80;;;-3.70;99.90;;;;;;4940664;29;20106;-87
2021/12/29 08:39:38;;;;;;;5.03;3.72;;;-3.60;99.90;;;;;;4940750;29;20463;-87
2021/12/29 08:42:04;;;;;;;8.00;3.67;;;-3.50;99.90;;;;;;4942126;29;20086;-87
2021/12/29 08:44:30;;;;;;;7.35;2.83;;;-3.50;99.90;;;;;;4940514;29;20031;-86
2021/12/29 08:46:55;;;;;;;6.93;3.92;;;-3.50;99.90;;;;;;4940635;29;20071;-87
2021/12/29 08:49:21;;;;;;;10.55;4.50;;;-3.40;99.90;;;;;;4957685;29;20082;-88
2021/12/29 08:51:47;;;;;;;10.68;4.15;;;-3.40;99.90;;;;;;4957889;29;20114;-87
2021/12/29 08:54:13;;;;;;;11.48;4.63;;;-3.30;99.90;;;;;;4940681;29;20039;-87
2021/12/29 08:56:38;;;;;;;6.47;3.72;;;-3.30;99.90;;;;;;4956939;28;20441;-87
2021/12/29 08:59:04;;;;;;;12.48;4.90;;;-3.30;99.90;;;;;;4957952;29;20070;-87
2021/12/29 09:01:30;;;;;;;5.65;2.90;;;-3.30;99.90;;;;;;4940384;29;20031;-88
2021/12/29 09:03:56;;;;;;;6.75;3.10;;;-3.30;99.90;;;;;;4940321;29;20031;-88
2021/12/29 09:06:22;;;;;;;5.95;2.90;;;-3.20;99.90;;;;;;4940057;29;20041;-87
2021/12/29 09:08:48;;;;;;;9.93;3.92;;;-3.20;99.90;;;;;;4941791;29;20370;-87
2021/12/29 09:11:14;;;;;;;6.63;3.45;;;-3.20;99.90;;;;;;4940387;29;20053;-88
2021/12/29 09:13:40;;;;;;;4.95;3.55;;;-3.20;99.90;;;;;;4940541;29;20034;-87
2021/12/29 09:16:07;;;;;;;8.95;3.70;;;-3.10;99.90;;;;;;4939853;29;20034;-87
2021/12/29 09:18:34;;;;;;;7.55;4.05;;;-3.10;99.90;;;;;;4940165;29;20043;-87
2021/12/29 09:21:06;;;;;;;11.48;5.82;;;-3.10;99.90;;;;;;4940426;29;20031;-85
2021/12/29 09:23:33;;;;;;;10.27;5.53;;;-3.10;99.90;;;;;;4940520;29;20023;-87
2021/12/29 09:25:59;;;;;;;10.18;5.43;;;-3.20;99.90;;;;;;4957084;29;20024;-87
2021/12/29 09:28:26;;;;;;;7.05;3.80;;;-3.10;99.90;;;;;;4939559;29;20036;-88
2021/12/29 09:30:52;;;;;;;8.23;4.68;;;-3.10;99.90;;;;;;4956520;29;20059;-87
2021/12/29 09:33:19;;;;;;;7.10;3.55;;;-3.10;99.90;;;;;;4957251;29;20032;-88
2021/12/29 09:35:51;;;;;;;8.90;4.35;;;-3.20;99.90;;;;;;4939717;29;20470;-87
2021/12/29 09:38:18;;;;;;;9.05;4.63;;;-3.10;99.90;;;;;;4940593;29;20031;-87
2021/12/29 09:40:45;;;;;;;8.05;4.88;;;-3.20;99.90;;;;;;4939671;29;20027;-87
2021/12/29 09:43:11;;;;;;;11.90;4.53;;;-3.10;99.90;;;;;;4939781;29;20028;-87
2021/12/29 09:45:39;;;;;;;10.55;4.43;;;-3.10;99.90;;;;;;4939882;29;20039;-88
2021/12/29 09:48:05;;;;;;;10.00;5.63;;;-3.10;99.90;;;;;;4939626;29;20094;-86
2021/12/29 09:50:31;;;;;;;8.13;5.43;;;-3.20;99.90;;;;;;4940141;29;20027;-87
2021/12/29 09:53:00;;;;;;;6.68;4.05;;;-3.10;99.90;;;;;;4939507;29;20391;-88
2021/12/29 09:55:27;;;;;;;7.32;3.60;;;-3.10;99.90;;;;;;4939567;29;20031;-88
2021/12/29 09:57:57;;;;;;;6.32;3.35;;;-3.10;99.90;;;;;;4939641;29;20446;-88
2021/12/29 10:00:55;;;;;;;7.55;3.25;;;-3.10;99.90;;;;;;4939660;29;20039;-88
2021/12/29 10:03:22;;;;;;;5.80;3.75;;;-3.00;99.90;;;;;;4924834;29;20508;-87
2021/12/29 10:05:50;;;;;;;5.85;3.15;;;-2.90;99.90;;;;;;4938979;29;20027;-88
2021/12/29 10:08:25;;;;;;;11.55;6.18;;;-2.90;99.90;;;;;;4937830;29;20033;-87
2021/12/29 10:10:55;;;;;;;10.13;4.32;;;-2.90;99.90;;;;;;4939343;29;20065;-89
2021/12/29 10:13:21;;;;;;;8.52;4.20;;;-2.90;99.90;;;;;;4939356;29;20027;-88
2021/12/29 10:15:52;;;;;;;6.75;3.92;;;-2.80;99.90;;;;;;4939088;29;20087;-88
2021/12/29 10:18:21;;;;;;;6.88;3.75;;;-2.90;99.90;;;;;;4939790;29;20109;-88
2021/12/29 10:21:00;;;;;;;10.93;5.40;;;-3.00;99.90;;;;;;4939744;29;20031;-87
2021/12/29 10:23:32;;;;;;;8.10;5.15;;;-3.00;99.90;;;;;;4940187;29;20320;-88
2021/12/29 10:26:13;;;;;;;9.57;4.65;;;-2.90;99.90;;;;;;4939737;29;20027;-87
2021/12/29 10:28:48;;;;;;;7.25;3.95;;;-2.80;99.90;;;;;;4957251;29;20112;-88
2021/12/29 10:31:18;;;;;;;8.45;3.67;;;-2.70;99.90;;;;;;4938671;29;20096;-88
2021/12/29 10:33:47;;;;;;;7.88;4.18;;;-2.70;99.90;;;;;;4956170;29;20477;-88
2021/12/29 10:36:44;;;;;;;7.95;4.20;;;-2.60;99.90;;;;;;4938569;29;20031;-88
2021/12/29 10:39:38;;;;;;;9.07;4.78;;;-2.70;99.90;;;;;;4970902;28;20038;-87
2021/12/29 10:42:29;;;;;;;8.52;4.65;;;-2.70;99.90;;;;;;4936818;29;20133;-89
2021/12/29 10:45:00;;;;;;;5.95;3.50;;;-2.70;99.90;;;;;;4937965;29;20061;-87
2021/12/29 10:47:31;;;;;;;11.90;6.65;;;-2.70;99.90;;;;;;4938150;29;20043;-87
2021/12/29 10:50:05;;;;;;;9.05;4.97;;;-2.70;99.90;;;;;;4955438;29;20039;-88
2021/12/29 10:52:41;;;;;;;11.38;6.30;;;-2.80;99.90;;;;;;4956220;29;20032;-88
2021/12/29 10:55:31;;;;;;;13.90;5.93;;;-2.90;99.90;;;;;;4938440;29;20100;-89
2021/12/29 10:58:18;;;;;;;16.15;6.00;;;-2.80;99.90;;;;;;4938732;29;20027;-88
2021/12/29 11:01:10;;;;;;;8.35;4.38;;;-2.90;99.90;;;;;;4970815;28;20054;-88
2021/12/29 11:03:44;;;;;;;10.50;4.97;;;-2.90;99.90;;;;;;4937683;29;20035;-87
2021/12/29 11:06:13;;;;;;;11.10;5.22;;;-2.90;99.90;;;;;;4939766;29;20378;-87
2021/12/29 11:08:57;;;;;;;9.32;4.63;;;-2.80;99.90;;;;;;4938463;29;20130;-89
2021/12/29 11:11:38;;;;;;;7.95;4.20;;;-2.90;99.90;;;;;;4939256;29;20418;-88
2021/12/29 11:14:09;;;;;;;8.45;4.18;;;-3.00;99.90;;;;;;4956108;29;20039;-89
2021/12/29 11:16:36;;;;;;;8.75;4.80;;;-3.00;99.90;;;;;;4938465;29;20031;-87
2021/12/29 11:19:02;;;;;;;9.40;5.55;;;-3.00;99.90;;;;;;4937656;28;20027;-87
2021/12/29 11:21:35;;;;;;;8.68;5.70;;;-3.00;99.90;;;;;;4955556;29;20031;-87
2021/12/29 11:24:34;;;;;;;9.32;4.97;;;-3.00;99.90;;;;;;4938413;29;20051;-87
2021/12/29 11:27:09;;;;;;;7.35;4.30;;;-3.10;99.90;;;;;;4896668;29;20046;-87
2021/12/29 11:29:35;;;;;;;9.82;4.68;;;-3.20;99.90;;;;;;4938360;29;20463;-88
2021/12/29 11:32:07;;;;;;;12.38;4.53;;;-3.20;99.90;;;;;;4919535;29;20052;-86
2021/12/29 11:34:33;;;;;;;7.40;4.50;;;-3.20;99.90;;;;;;4936443;29;20032;-87
2021/12/29 11:37:00;;;;;;;8.30;4.53;;;-3.10;99.90;;;;;;4918736;29;20374;-87
2021/12/29 11:39:26;;;;;;;6.85;3.42;;;-3.10;99.90;;;;;;4918928;29;20027;-88
2021/12/29 11:41:52;;;;;;;8.30;4.90;;;-3.10;99.90;;;;;;4918745;29;20120;-87
2021/12/29 11:44:18;;;;;;;12.98;3.88;;;-3.10;99.90;;;;;;4935791;29;20097;-87
2021/12/29 11:46:50;;;;;;;8.18;4.35;;;-3.20;99.90;;;;;;4918741;29;20079;-87
2021/12/29 11:49:17;;;;;;;4.55;3.05;;;-3.10;99.90;;;;;;4919161;29;20119;-87
2021/12/29 11:52:10;;;;;;;7.60;4.65;;;-3.10;99.90;;;;;;4919610;29;20404;-87
2021/12/29 11:54:59;;;;;;;10.80;4.55;;;-3.00;99.90;;;;;;4918996;29;20039;-88
2021/12/29 11:57:26;;;;;;;9.98;6.60;;;-2.90;99.90;;;;;;4919330;29;20027;-88
2021/12/29 12:00:04;;;;;;;12.98;5.60;;;-2.90;99.90;;;;;;4935768;29;20038;-88
2021/12/29 12:02:30;;;;;;;8.07;4.47;;;-2.90;99.90;;;;;;4918589;29;20032;-88
2021/12/29 12:05:03;;;;;;;5.28;3.63;;;-2.80;99.90;;;;;;4918403;29;20060;-88
2021/12/29 12:07:29;;;;;;;8.25;4.32;;;-2.80;99.90;;;;;;4936184;29;20032;-89
2021/12/29 12:09:59;;;;;;;8.32;5.10;;;-2.80;99.90;;;;;;4918946;29;20095;-87
2021/12/29 12:12:44;;;;;;;7.90;6.30;;;-2.70;99.90;;;;;;4936128;29;20468;-88
2021/12/29 12:15:12;;;;;;;10.10;5.15;;;-2.70;99.90;;;;;;4918443;29;20044;-88
2021/12/29 12:17:39;;;;;;;10.35;4.90;;;-2.60;99.90;;;;;;4918875;29;20059;-87
2021/12/29 12:20:09;;;;;;;8.27;4.72;;;-2.60;99.90;;;;;;4918494;29;20497;-87
2021/12/29 12:22:48;;;;;;;8.40;4.43;;;-2.60;99.90;;;;;;4918751;29;20028;-87
2021/12/29 12:25:27;;;;;;;10.50;6.72;;;-2.70;99.90;;;;;;4918961;29;20504;-87
2021/12/29 12:28:00;;;;;;;8.13;4.50;;;-2.70;99.90;;;;;;4918845;29;20078;-88
2021/12/29 12:30:28;;;;;;;10.27;5.30;;;-2.80;99.90;;;;;;4918714;29;20507;-87
2021/12/29 12:32:56;;;;;;;10.52;4.50;;;-2.80;99.90;;;;;;4921277;29;20050;-88
2021/12/29 12:35:37;;;;;;;9.75;4.88;;;-2.80;99.90;;;;;;4907100;29;20581;-88
2021/12/29 12:38:21;;;;;;;10.35;4.32;;;-2.90;99.90;;;;;;4940423;29;20032;-87
2021/12/29 12:41:00;;;;;;;6.95;4.20;;;-2.90;99.90;;;;;;4923055;29;20478;-87
2021/12/29 12:43:26;;;;;;;8.00;3.75;;;-2.90;99.90;;;;;;4923384;29;20031;-87
2021/12/29 12:45:52;;;;;;;9.18;5.00;;;-2.90;99.90;;;;;;4923270;29;20039;-86
2021/12/29 12:48:26;;;;;;;8.68;4.72;;;-2.90;99.90;;;;;;4921580;29;20110;-87
2021/12/29 12:50:53;;;;;;;9.93;3.72;;;-2.90;99.90;;;;;;4921869;29;20036;-86
2021/12/29 12:53:48;;;;;;;14.23;6.35;;;-2.90;99.90;;;;;;4921987;29;20056;-88
2021/12/29 12:56:17;;;;;;;8.85;3.95;;;-3.00;99.90;;;;;;4905286;29;20040;-86
2021/12/29 12:58:47;;;;;;;11.90;5.43;;;-3.10;99.90;;;;;;4921134;29;20036;-88